createdAt,value
2023-06-10T00:00:08.458Z,100.00
2023-06-10T00:03:03.081Z,100.00
2023-06-10T00:05:32.433Z,100.00
2023-06-10T00:08:00.426Z,100.00
2023-06-10T00:10:28.882Z,100.00
2023-06-10T00:12:57.306Z,100.00
2023-06-10T00:15:25.352Z,100.00
2023-06-10T00:17:56.318Z,100.00
2023-06-10T00:20:25.030Z,100.00
2023-06-10T00:22:53.345Z,100.00
2023-06-10T00:25:21.518Z,100.00
2023-06-10T00:27:49.308Z,100.00
2023-06-10T00:30:17.124Z,100.00
2023-06-10T00:32:45.100Z,100.00
2023-06-10T00:35:13.146Z,100.00
2023-06-10T00:37:41.543Z,100.00
2023-06-10T00:40:12.007Z,100.00
2023-06-10T00:42:39.985Z,100.00
2023-06-10T00:45:09.263Z,100.00
2023-06-10T00:47:38.359Z,100.00
2023-06-10T00:50:07.617Z,100.00
2023-06-10T00:52:36.781Z,100.00
2023-06-10T00:55:05.491Z,100.00
2023-06-10T00:57:33.698Z,100.00
2023-06-10T01:00:01.491Z,100.00
2023-06-10T01:02:30.581Z,100.00
2023-06-10T01:05:02.754Z,100.00
2023-06-10T01:07:54.373Z,100.00
2023-06-10T01:10:36.433Z,100.00
2023-06-10T01:13:08.124Z,100.00
2023-06-10T01:15:36.295Z,100.00
2023-06-10T01:18:16.560Z,100.00
2023-06-10T01:20:47.921Z,100.00
2023-06-10T01:23:16.910Z,100.00
2023-06-10T01:25:52.974Z,100.00
2023-06-10T01:28:31.090Z,100.00
2023-06-10T01:31:22.529Z,100.00
2023-06-10T01:33:53.215Z,100.00
2023-06-10T01:36:22.977Z,100.00
2023-06-10T01:38:53.896Z,100.00
2023-06-10T01:41:22.381Z,100.00
2023-06-10T01:43:50.280Z,100.00
2023-06-10T01:46:21.070Z,100.00
2023-06-10T01:48:49.336Z,100.00
2023-06-10T01:51:17.507Z,100.00
2023-06-10T01:53:45.287Z,100.00
2023-06-10T01:56:17.894Z,100.00
2023-06-10T01:58:46.952Z,100.00
2023-06-10T02:01:15.506Z,100.00
2023-06-10T02:03:43.486Z,100.00
2023-06-10T02:06:11.260Z,100.00
2023-06-10T02:08:39.141Z,100.00
2023-06-10T02:11:08.221Z,100.00
2023-06-10T02:13:36.300Z,100.00
2023-06-10T02:16:04.178Z,100.00
2023-06-10T02:18:32.331Z,100.00
2023-06-10T02:21:00.205Z,100.00
2023-06-10T02:23:28.273Z,100.00
2023-06-10T02:25:56.585Z,100.00
2023-06-10T02:28:26.683Z,100.00
2023-06-10T02:30:54.647Z,100.00
2023-06-10T02:33:23.018Z,100.00
2023-06-10T02:35:52.189Z,100.00
2023-06-10T02:38:20.662Z,100.00
2023-06-10T02:40:48.617Z,100.00
2023-06-10T02:43:16.423Z,100.00
2023-06-10T02:45:46.154Z,100.00
2023-06-10T02:48:15.546Z,100.00
2023-06-10T02:50:43.498Z,100.00
2023-06-10T02:53:18.030Z,100.00
2023-06-10T02:55:49.965Z,100.00
2023-06-10T02:58:18.965Z,100.00
2023-06-10T03:00:46.934Z,100.00
2023-06-10T03:03:15.672Z,100.00
2023-06-10T03:05:49.950Z,100.00
2023-06-10T03:08:18.325Z,100.00
2023-06-10T03:10:46.418Z,100.00
2023-06-10T03:13:17.772Z,100.00
2023-06-10T03:15:47.275Z,100.00
2023-06-10T03:18:17.923Z,100.00
2023-06-10T03:20:46.615Z,100.00
2023-06-10T03:23:14.488Z,100.00
2023-06-10T03:25:42.313Z,100.00
2023-06-10T03:28:11.639Z,100.00
2023-06-10T03:30:39.620Z,100.00
2023-06-10T03:33:08.077Z,100.00
2023-06-10T03:35:36.681Z,100.00
2023-06-10T03:38:05.088Z,100.00
2023-06-10T03:40:33.285Z,100.00
2023-06-10T03:43:01.935Z,100.00
2023-06-10T03:45:30.477Z,100.00
2023-06-10T03:47:58.905Z,100.00
2023-06-10T03:50:32.567Z,100.00
2023-06-10T03:53:00.809Z,100.00
2023-06-10T03:55:28.982Z,100.00
2023-06-10T03:57:57.931Z,100.00
2023-06-10T04:00:26.408Z,100.00
2023-06-10T04:02:54.303Z,100.00
2023-06-10T04:05:34.927Z,100.00
2023-06-10T04:08:02.821Z,100.00
2023-06-10T04:10:30.648Z,100.00
2023-06-10T04:12:58.583Z,100.00
2023-06-10T04:15:28.511Z,100.00
2023-06-10T04:17:57.763Z,100.00
2023-06-10T04:20:25.838Z,100.00
2023-06-10T04:22:54.562Z,100.00
2023-06-10T04:25:23.242Z,100.00
2023-06-10T04:27:51.360Z,100.00
2023-06-10T04:30:20.244Z,100.00
2023-06-10T04:32:48.751Z,100.00
2023-06-10T04:35:18.230Z,100.00
2023-06-10T04:37:48.381Z,100.00
2023-06-10T04:40:17.067Z,100.00
2023-06-10T04:42:45.722Z,100.00
2023-06-10T04:45:17.776Z,100.00
2023-06-10T04:47:45.858Z,100.00
2023-06-10T04:50:13.684Z,100.00
2023-06-10T04:52:42.694Z,100.00
2023-06-10T04:55:12.182Z,100.00
2023-06-10T04:57:40.614Z,100.00
2023-06-10T05:00:09.630Z,100.00
2023-06-10T05:02:37.548Z,100.00
2023-06-10T05:05:05.780Z,100.00
2023-06-10T05:07:33.694Z,100.00
2023-06-10T05:10:02.737Z,100.00
2023-06-10T05:12:30.809Z,100.00
2023-06-10T05:14:58.732Z,100.00
2023-06-10T05:17:26.696Z,100.00
2023-06-10T05:19:54.711Z,100.00
2023-06-10T05:22:25.084Z,100.00
2023-06-10T05:24:53.612Z,100.00
2023-06-10T05:27:22.334Z,100.00
2023-06-10T05:29:50.604Z,100.00
2023-06-10T05:32:19.246Z,100.00
2023-06-10T05:34:47.273Z,100.00
2023-06-10T05:37:15.857Z,100.00
2023-06-10T05:39:43.651Z,100.00
2023-06-10T05:42:11.670Z,100.00
2023-06-10T05:44:39.725Z,100.00
2023-06-10T05:47:07.852Z,100.00
2023-06-10T05:49:35.877Z,100.00
2023-06-10T05:52:04.021Z,100.00
2023-06-10T05:54:32.025Z,100.00
2023-06-10T05:56:59.907Z,100.00
2023-06-10T05:59:27.903Z,100.00
2023-06-10T06:01:55.921Z,100.00
2023-06-10T06:04:23.817Z,100.00
2023-06-10T06:06:51.860Z,100.00
2023-06-10T06:09:19.968Z,100.00
2023-06-10T06:11:47.969Z,100.00
2023-06-10T06:14:15.853Z,100.00
2023-06-10T06:16:43.911Z,100.00
2023-06-10T06:19:12.416Z,100.00
2023-06-10T06:21:40.277Z,100.00
2023-06-10T06:24:08.519Z,100.00
2023-06-10T06:26:36.454Z,100.00
2023-06-10T06:29:04.445Z,100.00
2023-06-10T06:31:32.719Z,100.00
2023-06-10T06:34:00.803Z,100.00
2023-06-10T06:36:28.705Z,100.00
2023-06-10T06:38:56.796Z,100.00
2023-06-10T06:41:28.435Z,100.00
2023-06-10T06:43:57.103Z,100.00
2023-06-10T06:46:38.491Z,100.00
2023-06-10T06:49:06.457Z,100.00
2023-06-10T06:51:34.334Z,100.00
2023-06-10T06:54:02.864Z,100.00
2023-06-10T06:56:30.784Z,100.00
2023-06-10T06:58:58.625Z,100.00
2023-06-10T07:01:26.651Z,100.00
2023-06-10T07:03:54.633Z,100.00
2023-06-10T07:06:22.681Z,100.00
2023-06-10T07:08:50.523Z,100.00
2023-06-10T07:11:19.031Z,100.00
2023-06-10T07:13:46.991Z,100.00
2023-06-10T07:16:15.574Z,100.00
2023-06-10T07:18:43.472Z,100.00
2023-06-10T07:21:11.457Z,100.00
2023-06-10T07:23:43.855Z,100.00
2023-06-10T07:26:14.387Z,100.00
2023-06-10T07:28:43.164Z,100.00
2023-06-10T07:31:16.786Z,100.00
2023-06-10T07:33:47.124Z,100.00
2023-06-10T07:36:23.065Z,100.00
2023-06-10T07:38:51.083Z,100.00
2023-06-10T07:41:20.622Z,100.00
2023-06-10T07:43:48.711Z,100.00
2023-06-10T07:46:17.280Z,100.00
2023-06-10T07:48:45.488Z,100.00
2023-06-10T07:51:13.563Z,99.57
2023-06-10T07:53:41.652Z,99.19
2023-06-10T07:56:09.567Z,99.22
2023-06-10T07:58:37.567Z,97.39
2023-06-10T08:01:05.623Z,95.38
2023-06-10T08:03:33.867Z,94.18
2023-06-10T08:06:02.224Z,94.85
2023-06-10T08:08:30.322Z,95.70
2023-06-10T08:10:59.928Z,94.66
2023-06-10T08:13:27.815Z,93.87
2023-06-10T08:15:56.404Z,95.15
2023-06-10T08:18:24.348Z,96.30
2023-06-10T08:20:52.359Z,96.57
2023-06-10T08:23:20.897Z,95.47
2023-06-10T08:25:48.760Z,95.56
2023-06-10T08:28:16.804Z,95.43
2023-06-10T08:30:45.348Z,92.56
2023-06-10T08:33:13.416Z,91.15
2023-06-10T08:35:41.433Z,91.09
2023-06-10T08:38:09.182Z,88.95
2023-06-10T08:40:38.164Z,89.49
2023-06-10T08:43:16.457Z,89.27
2023-06-10T08:45:49.808Z,88.46
2023-06-10T08:48:18.353Z,88.10
2023-06-10T08:50:48.802Z,88.44
2023-06-10T08:53:20.139Z,88.02
2023-06-10T08:55:53.150Z,88.11
2023-06-10T08:58:21.846Z,89.63
2023-06-10T09:00:50.053Z,90.14
2023-06-10T09:03:19.236Z,89.87
2023-06-10T09:05:47.384Z,88.54
2023-06-10T09:08:17.150Z,88.10
2023-06-10T09:10:47.371Z,87.48
2023-06-10T09:13:16.878Z,85.39
2023-06-10T09:15:45.886Z,85.61
2023-06-10T09:18:14.450Z,85.71
2023-06-10T09:20:44.316Z,85.85
2023-06-10T09:23:13.419Z,86.22
2023-06-10T09:25:41.454Z,85.95
2023-06-10T09:28:16.662Z,85.22
2023-06-10T09:30:44.735Z,84.49
2023-06-10T09:33:16.446Z,82.63
2023-06-10T09:35:49.447Z,80.65
2023-06-10T09:38:22.950Z,80.91
2023-06-10T09:40:55.452Z,79.02
2023-06-10T09:43:24.089Z,79.48
2023-06-10T09:45:55.104Z,80.95
2023-06-10T09:48:24.896Z,80.05
2023-06-10T09:50:53.240Z,78.00
2023-06-10T09:53:22.059Z,77.57
2023-06-10T09:55:50.019Z,77.37
2023-06-10T09:58:18.009Z,78.69
2023-06-10T10:00:54.992Z,79.65
2023-06-10T10:03:25.974Z,79.34
2023-06-10T10:06:00.711Z,79.69
2023-06-10T10:08:29.367Z,79.02
2023-06-10T10:10:59.236Z,77.48
2023-06-10T10:13:29.072Z,76.21
2023-06-10T10:16:01.229Z,74.49
2023-06-10T10:18:32.429Z,73.91
2023-06-10T10:21:08.084Z,72.31
2023-06-10T10:23:45.620Z,73.52
2023-06-10T10:26:15.014Z,74.81
2023-06-10T10:28:49.357Z,74.21
2023-06-10T10:31:20.291Z,72.59
2023-06-10T10:34:02.172Z,72.17
2023-06-10T10:36:30.707Z,70.91
2023-06-10T10:38:59.780Z,70.42
2023-06-10T10:41:29.545Z,69.79
2023-06-10T10:43:59.076Z,70.51
2023-06-10T10:46:27.170Z,70.89
2023-06-10T10:48:57.672Z,70.32
2023-06-10T10:51:25.959Z,69.20
2023-06-10T10:54:15.924Z,67.35
2023-06-10T10:57:20.063Z,66.48
2023-06-10T11:00:04.654Z,67.26
2023-06-10T11:02:33.278Z,66.18
2023-06-10T11:05:03.073Z,64.61
2023-06-10T11:07:36.347Z,65.95
2023-06-10T11:10:11.755Z,61.77
2023-06-10T11:12:48.472Z,61.91
2023-06-10T11:15:27.045Z,60.84
2023-06-10T11:18:11.902Z,60.28
2023-06-10T11:20:49.677Z,61.57
2023-06-10T11:23:29.987Z,62.45
2023-06-10T11:26:36.257Z,61.01
2023-06-10T11:29:08.463Z,63.21
2023-06-10T11:31:45.582Z,64.12
2023-06-10T11:34:31.258Z,63.61
2023-06-10T11:37:01.290Z,63.47
2023-06-10T11:39:30.808Z,63.61
2023-06-10T11:44:52.325Z,62.30
2023-06-10T11:47:21.328Z,59.85
2023-06-10T11:49:58.847Z,59.57
2023-06-10T11:52:39.074Z,59.74
2023-06-10T11:55:10.849Z,60.42
2023-06-10T11:57:47.384Z,60.90
2023-06-10T12:00:18.200Z,60.49
2023-06-10T12:02:46.451Z,62.53
2023-06-10T12:05:19.416Z,63.01
2023-06-10T12:07:47.240Z,62.28
2023-06-10T12:10:27.175Z,62.16
2023-06-10T12:12:56.419Z,62.54
2023-06-10T12:15:26.671Z,62.64
2023-06-10T12:17:54.626Z,62.95
2023-06-10T12:20:29.284Z,63.49
2023-06-10T12:22:57.312Z,63.11
2023-06-10T12:25:27.914Z,63.88
2023-06-10T12:27:57.003Z,63.90
2023-06-10T12:30:27.694Z,62.77
2023-06-10T12:32:57.085Z,64.47
2023-06-10T12:35:28.759Z,64.61
2023-06-10T12:38:06.197Z,65.55
2023-06-10T12:40:37.100Z,65.04
2023-06-10T12:43:08.145Z,64.23
2023-06-10T12:45:46.307Z,61.93
2023-06-10T12:48:22.519Z,60.75
2023-06-10T12:50:55.550Z,57.96
2023-06-10T12:53:24.960Z,57.59
2023-06-10T12:55:53.978Z,58.51
2023-06-10T12:58:23.158Z,61.28
2023-06-10T13:00:54.287Z,62.82
2023-06-10T13:03:23.225Z,62.80
2023-06-10T13:05:51.228Z,61.71
2023-06-10T13:08:19.241Z,62.18
2023-06-10T13:10:47.186Z,62.69
2023-06-10T13:13:15.194Z,61.82
2023-06-10T13:24:28.317Z,63.78
2023-06-10T13:26:57.454Z,64.20
2023-06-10T13:29:28.002Z,64.08
2023-06-10T13:31:55.950Z,64.25
2023-06-10T13:34:24.106Z,64.95
2023-06-10T13:36:52.152Z,65.29
2023-06-10T13:39:20.089Z,65.39
2023-06-10T13:41:47.920Z,65.36
2023-06-10T13:44:16.311Z,64.95
2023-06-10T13:46:46.222Z,64.83
2023-06-10T13:49:15.494Z,64.84
2023-06-10T13:51:43.662Z,64.16
2023-06-10T13:54:11.620Z,63.92
2023-06-10T13:56:40.012Z,63.04
2023-06-10T13:59:08.568Z,61.51
2023-06-10T14:01:40.456Z,62.22
2023-06-10T14:04:08.509Z,61.57
2023-06-10T14:06:36.401Z,61.12
2023-06-10T14:09:06.458Z,61.27
2023-06-10T14:11:35.188Z,60.42
2023-06-10T14:14:03.597Z,58.73
2023-06-10T14:16:31.472Z,59.34
2023-06-10T14:18:59.380Z,57.81
2023-06-10T14:21:27.146Z,57.80
2023-06-10T14:23:55.268Z,57.94
2023-06-10T14:26:23.294Z,58.82
2023-06-10T14:28:51.510Z,58.82
2023-06-10T14:31:20.008Z,56.49
2023-06-10T14:33:48.233Z,55.82
2023-06-10T14:36:16.208Z,55.91
2023-06-10T14:38:44.167Z,55.84
2023-06-10T14:41:12.117Z,56.24
2023-06-10T14:43:40.144Z,56.88
2023-06-10T14:46:08.157Z,56.70
2023-06-10T14:48:37.176Z,58.03
2023-06-10T14:51:05.204Z,57.70
2023-06-10T14:53:33.049Z,58.58
2023-06-10T14:56:00.989Z,59.61
2023-06-10T14:58:28.875Z,60.35
2023-06-10T15:00:56.915Z,60.95
2023-06-10T15:03:25.473Z,60.40
2023-06-10T15:05:54.181Z,59.93
2023-06-10T15:08:22.237Z,59.52
2023-06-10T15:10:50.385Z,60.67
2023-06-10T15:13:18.335Z,61.29
2023-06-10T15:15:46.431Z,62.72
2023-06-10T15:18:23.155Z,64.26
2023-06-10T15:20:57.910Z,65.18
2023-06-10T15:23:26.049Z,65.09
2023-06-10T15:25:53.939Z,64.02
2023-06-10T15:28:25.222Z,63.75
2023-06-10T15:30:55.785Z,61.74
2023-06-10T15:33:23.656Z,60.76
2023-06-10T15:35:53.881Z,59.42
2023-06-10T15:38:21.844Z,59.92
2023-06-10T15:40:49.684Z,62.24
2023-06-10T15:43:17.549Z,63.82
2023-06-10T15:45:45.799Z,64.71
2023-06-10T15:48:14.227Z,64.87
2023-06-10T15:50:42.218Z,65.16
2023-06-10T15:53:10.386Z,65.00
2023-06-10T15:55:38.508Z,64.68
2023-06-10T15:58:08.349Z,65.04
2023-06-10T16:00:36.412Z,65.35
2023-06-10T16:03:04.521Z,66.09
2023-06-10T16:05:32.819Z,66.51
2023-06-10T16:08:03.049Z,66.51
2023-06-10T16:10:31.533Z,67.15
2023-06-10T16:12:59.378Z,67.24
2023-06-10T16:15:30.484Z,67.92
2023-06-10T16:18:01.485Z,67.63
2023-06-10T16:20:29.797Z,67.19
2023-06-10T16:22:57.839Z,67.49
2023-06-10T16:25:29.003Z,67.21
2023-06-10T16:27:58.723Z,67.24
2023-06-10T16:30:27.311Z,66.34
2023-06-10T16:32:55.345Z,66.44
2023-06-10T16:35:23.424Z,66.10
2023-06-10T16:37:51.963Z,65.09
2023-06-10T16:40:20.369Z,63.52
2023-06-10T16:42:48.413Z,64.36
2023-06-10T16:45:25.188Z,74.59
2023-06-10T16:47:57.805Z,82.61
2023-06-10T16:50:25.856Z,85.60
2023-06-10T16:52:53.869Z,88.01
2023-06-10T16:55:22.271Z,84.27
2023-06-10T16:57:50.037Z,83.58
2023-06-10T17:00:18.551Z,89.24
2023-06-10T17:02:46.442Z,94.97
2023-06-10T17:05:15.056Z,93.99
2023-06-10T17:07:43.192Z,93.60
2023-06-10T17:10:11.262Z,98.16
2023-06-10T17:12:42.493Z,99.51
2023-06-10T17:15:10.951Z,98.78
2023-06-10T17:17:40.021Z,93.29
2023-06-10T17:20:08.714Z,98.37
2023-06-10T17:22:36.608Z,99.42
2023-06-10T17:25:04.856Z,100.00
2023-06-10T17:27:32.723Z,100.00
2023-06-10T17:30:03.905Z,100.00
2023-06-10T17:32:34.691Z,100.00
2023-06-10T17:35:02.736Z,100.00
2023-06-10T17:37:30.699Z,100.00
2023-06-10T17:39:58.825Z,100.00
2023-06-10T17:42:27.004Z,100.00
2023-06-10T17:44:55.046Z,100.00
2023-06-10T17:47:23.018Z,100.00
2023-06-10T17:49:51.037Z,100.00
2023-06-10T17:52:19.172Z,100.00
2023-06-10T17:54:47.070Z,100.00
2023-06-10T17:57:14.995Z,100.00
2023-06-10T17:59:43.499Z,100.00
2023-06-10T18:02:11.392Z,100.00
2023-06-10T18:04:39.548Z,100.00
2023-06-10T18:07:07.487Z,100.00
2023-06-10T18:09:35.504Z,100.00
2023-06-10T18:12:03.905Z,100.00
2023-06-10T18:14:31.835Z,100.00
2023-06-10T18:16:59.698Z,100.00
2023-06-10T18:19:27.881Z,100.00
2023-06-10T18:21:55.802Z,100.00
2023-06-10T18:24:23.957Z,100.00
2023-06-10T18:26:52.064Z,100.00
2023-06-10T18:29:23.251Z,100.00
2023-06-10T18:31:51.214Z,100.00
2023-06-10T18:34:19.409Z,100.00
2023-06-10T18:36:50.376Z,100.00
2023-06-10T18:39:18.288Z,100.00
2023-06-10T18:41:46.197Z,100.00
2023-06-10T18:44:14.360Z,100.00
2023-06-10T18:46:42.307Z,100.00
2023-06-10T18:49:10.345Z,100.00
2023-06-10T18:51:38.261Z,100.00
2023-06-10T18:54:06.605Z,100.00
2023-06-10T18:56:34.671Z,100.00
2023-06-10T18:59:02.766Z,100.00
2023-06-10T19:01:30.726Z,100.00
2023-06-10T19:03:58.708Z,100.00
2023-06-10T19:06:26.681Z,100.00
2023-06-10T19:08:57.269Z,100.00
2023-06-10T19:11:26.269Z,100.00
2023-06-10T19:13:54.308Z,100.00
2023-06-10T19:16:22.283Z,100.00
2023-06-10T19:18:50.560Z,100.00
2023-06-10T19:21:18.839Z,100.00
2023-06-10T19:23:47.379Z,100.00
2023-06-10T19:26:15.551Z,100.00
2023-06-10T19:28:43.584Z,100.00
2023-06-10T19:31:11.532Z,100.00
2023-06-10T19:33:39.461Z,100.00
2023-06-10T19:36:10.069Z,100.00
2023-06-10T19:38:39.182Z,100.00
2023-06-10T19:41:07.119Z,100.00
2023-06-10T19:43:35.121Z,100.00
2023-06-10T19:46:03.269Z,100.00
2023-06-10T19:48:31.748Z,100.00
2023-06-10T19:50:59.720Z,100.00
2023-06-10T19:53:30.217Z,100.00
2023-06-10T19:56:01.005Z,100.00
2023-06-10T19:58:28.993Z,100.00
2023-06-10T20:00:57.418Z,100.00
2023-06-10T20:03:25.389Z,100.00
2023-06-10T20:05:53.580Z,100.00
2023-06-10T20:08:22.547Z,100.00
2023-06-10T20:10:50.564Z,100.00
2023-06-10T20:13:18.359Z,100.00
2023-06-10T20:15:46.254Z,100.00
2023-06-10T20:18:14.269Z,100.00
2023-06-10T20:20:42.179Z,100.00
2023-06-10T20:23:10.190Z,100.00
2023-06-10T20:25:38.052Z,100.00
2023-06-10T20:28:06.134Z,100.00
2023-06-10T20:30:34.125Z,100.00
2023-06-10T20:33:02.058Z,100.00
2023-06-10T20:35:30.146Z,100.00
2023-06-10T20:37:58.175Z,100.00
2023-06-10T20:40:26.165Z,100.00
2023-06-10T20:42:54.028Z,100.00
2023-06-10T20:45:22.024Z,100.00
2023-06-10T20:47:50.109Z,100.00
2023-06-10T20:50:18.179Z,100.00
2023-06-10T20:52:46.220Z,100.00
2023-06-10T20:55:14.261Z,100.00
2023-06-10T20:57:42.263Z,100.00
2023-06-10T21:00:10.573Z,100.00
2023-06-10T21:02:38.751Z,100.00
2023-06-10T21:05:07.702Z,100.00
2023-06-10T21:07:35.984Z,100.00
2023-06-10T21:10:03.996Z,100.00
2023-06-10T21:12:32.569Z,100.00
2023-06-10T21:15:00.666Z,100.00
2023-06-10T21:17:29.053Z,100.00
2023-06-10T21:19:57.007Z,100.00
2023-06-10T21:22:24.919Z,100.00
2023-06-10T21:24:52.709Z,100.00
2023-06-10T21:27:22.915Z,100.00
2023-06-10T21:29:51.012Z,100.00
2023-06-10T21:32:19.646Z,100.00
2023-06-10T21:34:47.575Z,100.00
2023-06-10T21:37:16.871Z,100.00
2023-06-10T21:39:44.901Z,100.00
2023-06-10T21:42:12.992Z,100.00
2023-06-10T21:44:41.181Z,100.00
2023-06-10T21:47:09.324Z,100.00
2023-06-10T21:49:37.387Z,100.00
2023-06-10T21:52:08.599Z,100.00
2023-06-10T21:54:36.671Z,100.00
2023-06-10T21:57:04.912Z,100.00
2023-06-10T21:59:33.026Z,100.00
2023-06-10T22:02:01.729Z,100.00
2023-06-10T22:04:30.125Z,100.00
2023-06-10T22:06:59.956Z,100.00
2023-06-10T22:09:28.110Z,100.00
2023-06-10T22:11:56.179Z,100.00
2023-06-10T22:14:24.359Z,100.00
2023-06-10T22:16:53.285Z,100.00
2023-06-10T22:19:21.113Z,100.00
2023-06-10T22:21:49.092Z,100.00
2023-06-10T22:24:17.346Z,100.00
2023-06-10T22:26:53.384Z,100.00
2023-06-10T22:29:22.032Z,100.00
2023-06-10T22:31:50.092Z,100.00
2023-06-10T22:34:18.749Z,100.00
2023-06-10T22:36:46.762Z,100.00
2023-06-10T22:39:14.950Z,100.00
2023-06-10T22:41:44.795Z,100.00
2023-06-10T22:44:12.749Z,100.00
2023-06-10T22:46:40.764Z,100.00
2023-06-10T22:49:08.767Z,100.00
2023-06-10T22:51:36.862Z,100.00
2023-06-10T22:54:05.077Z,100.00
2023-06-10T22:56:33.362Z,100.00
2023-06-10T22:59:03.655Z,100.00
2023-06-10T23:01:31.605Z,100.00
2023-06-10T23:03:59.588Z,100.00
2023-06-10T23:06:27.969Z,100.00
2023-06-10T23:08:55.990Z,100.00
2023-06-10T23:11:24.042Z,100.00
2023-06-10T23:13:53.335Z,100.00
2023-06-10T23:16:21.293Z,100.00
2023-06-10T23:18:49.297Z,100.00
2023-06-10T23:21:19.931Z,100.00
2023-06-10T23:23:52.505Z,100.00
2023-06-10T23:26:22.158Z,100.00
2023-06-10T23:28:50.312Z,100.00
2023-06-10T23:31:18.538Z,100.00
2023-06-10T23:33:47.120Z,100.00
2023-06-10T23:36:17.313Z,100.00
2023-06-10T23:38:45.188Z,100.00
2023-06-10T23:41:13.180Z,100.00
2023-06-10T23:43:41.197Z,100.00
2023-06-10T23:46:09.109Z,100.00
2023-06-10T23:48:37.132Z,100.00
2023-06-10T23:51:06.569Z,100.00
2023-06-10T23:53:34.570Z,100.00
2023-06-10T23:56:02.917Z,100.00
2023-06-10T23:58:31.104Z,100.00
